Herscher, Illinois
Current Conditions -  °F | °C
As of 5:15 PM on Wednesday 17 Dec 2014 (Local Time) from KIKK Reporting Station
Overcast Overcast  
Wind Chill: 19°   Ceiling: 2600
Heat Index: 27°   Visibility: 10mi
Dew Point: 20°   Wind: 8mph
Humidity: 76%   Direction: 280°W
Pressure: 30.28"   Gusts: NA
Location:  41.05°N, 88.1°W
Report Text: KIKK 172315Z AUTO 28007KT 10SM OVC026 M03/M06 A3028 RMK AO2 T10281065
Loading
Personal Weather Stations






























Interactive Weather Map New forecast layout! Learn more

10-Day Weather Forecast

Advertisements
Track Severe Weather on mobile